createdAt,value
2023-05-20T00:00:02.274Z,96292.47
2023-05-20T00:02:31.225Z,96292.72
2023-05-20T00:04:59.714Z,96303.06
2023-05-20T00:07:28.156Z,96285.06
2023-05-20T00:09:56.507Z,96288.88
2023-05-20T00:12:24.800Z,96290.53
2023-05-20T00:14:55.927Z,96272.28
2023-05-20T00:17:26.532Z,96277.41
2023-05-20T00:19:54.933Z,96277.78
2023-05-20T00:22:23.305Z,96269.13
2023-05-20T00:24:51.623Z,96264.13
2023-05-20T00:27:19.990Z,96263.06
2023-05-20T00:29:48.274Z,96274.84
2023-05-20T00:32:17.999Z,96266.34
2023-05-20T00:34:46.349Z,96269.22
2023-05-20T00:37:14.656Z,96267.81
2023-05-20T00:39:42.925Z,96268.53
2023-05-20T00:42:11.173Z,96266.28
2023-05-20T00:44:39.486Z,96268.13
2023-05-20T00:47:07.780Z,96274.34
2023-05-20T00:49:37.510Z,96270.09
2023-05-20T00:52:06.647Z,96270.53
2023-05-20T00:54:35.001Z,96275.72
2023-05-20T00:57:03.891Z,96277.25
2023-05-20T00:59:32.256Z,96263.84
2023-05-20T01:02:00.599Z,96263.00
2023-05-20T01:04:29.062Z,96261.72
2023-05-20T01:06:58.899Z,96261.81
2023-05-20T01:09:27.301Z,96258.50
2023-05-20T01:11:57.963Z,96272.13
2023-05-20T01:14:28.475Z,96268.59
2023-05-20T01:16:58.491Z,96261.00
2023-05-20T01:19:29.975Z,96253.00
2023-05-20T01:22:00.598Z,96252.22
2023-05-20T01:24:30.042Z,96258.38
2023-05-20T01:26:58.400Z,96256.97
2023-05-20T01:29:26.878Z,96262.13
2023-05-20T01:31:56.497Z,96266.13
2023-05-20T01:34:25.393Z,96258.47
2023-05-20T01:36:54.742Z,96259.59
2023-05-20T01:39:23.949Z,96251.78
2023-05-20T01:41:54.690Z,96246.31
2023-05-20T01:44:23.197Z,96252.16
2023-05-20T01:46:51.567Z,96254.81
2023-05-20T01:49:19.921Z,96257.22
2023-05-20T01:51:48.289Z,96252.09
2023-05-20T01:54:16.614Z,96258.91
2023-05-20T01:56:45.337Z,96251.69
2023-05-20T01:59:15.074Z,96244.56
2023-05-20T02:01:43.669Z,96242.59
2023-05-20T02:04:12.002Z,96233.22
2023-05-20T02:06:40.288Z,96228.25
2023-05-20T02:09:08.876Z,96225.84
2023-05-20T02:11:37.161Z,96233.94
2023-05-20T02:14:05.545Z,96224.81
2023-05-20T02:16:35.259Z,96224.75
2023-05-20T02:19:03.726Z,96229.41
2023-05-20T02:21:32.285Z,96227.44
2023-05-20T02:24:00.521Z,96236.16
2023-05-20T02:26:28.886Z,96225.34
2023-05-20T02:28:57.342Z,96224.69
2023-05-20T02:31:25.959Z,96228.28
2023-05-20T02:33:55.856Z,96241.16
2023-05-20T02:36:24.163Z,96233.03
2023-05-20T02:38:54.704Z,96236.97
2023-05-20T02:41:22.803Z,96245.50
2023-05-20T02:43:51.024Z,96242.22
2023-05-20T02:46:19.991Z,96227.94
2023-05-20T02:48:48.271Z,96224.56
2023-05-20T02:51:18.361Z,96225.72
2023-05-20T02:53:47.461Z,96219.88
2023-05-20T02:56:16.302Z,96227.97
2023-05-20T02:58:44.660Z,96225.69
2023-05-20T03:01:13.017Z,96219.50
2023-05-20T03:03:41.707Z,96221.72
2023-05-20T03:06:10.202Z,96225.13
2023-05-20T03:08:40.249Z,96230.44
2023-05-20T03:11:08.504Z,96234.03
2023-05-20T03:13:36.821Z,96225.78
2023-05-20T03:16:05.656Z,96222.03
2023-05-20T03:18:34.341Z,96230.00
2023-05-20T03:21:02.685Z,96228.97
2023-05-20T03:23:30.960Z,96223.84
2023-05-20T03:26:00.605Z,96226.38
2023-05-20T03:28:28.917Z,96228.19
2023-05-20T03:30:57.240Z,96224.16
2023-05-20T03:33:26.403Z,96234.44
2023-05-20T03:35:54.770Z,96226.28
2023-05-20T03:38:23.241Z,96238.03
2023-05-20T03:40:51.510Z,96233.81
2023-05-20T03:43:21.259Z,96230.25
2023-05-20T03:45:49.559Z,96240.31
2023-05-20T03:48:17.869Z,96244.72
2023-05-20T03:50:46.143Z,96254.41
2023-05-20T03:53:14.454Z,96249.25
2023-05-20T03:55:43.626Z,96242.75
2023-05-20T03:58:13.482Z,96236.81
2023-05-20T04:00:43.263Z,96237.66
2023-05-20T04:03:11.672Z,96233.69
2023-05-20T04:05:40.140Z,96234.53
2023-05-20T04:08:10.040Z,96236.41
2023-05-20T04:10:38.299Z,96231.16
2023-05-20T04:13:06.656Z,96233.16
2023-05-20T04:15:36.951Z,96225.63
2023-05-20T04:18:08.194Z,96216.19
2023-05-20T04:20:37.075Z,96237.09
2023-05-20T04:23:05.436Z,96230.25
2023-05-20T04:25:34.738Z,96238.38
2023-05-20T04:28:03.029Z,96238.91
2023-05-20T04:30:33.573Z,96237.69
2023-05-20T04:33:03.617Z,96229.28
2023-05-20T04:35:35.226Z,96221.97
2023-05-20T04:38:03.767Z,96222.28
2023-05-20T04:40:32.507Z,96224.66
2023-05-20T04:43:01.324Z,96237.31
2023-05-20T04:45:29.610Z,96232.75
2023-05-20T04:47:58.125Z,96232.59
2023-05-20T04:50:26.559Z,96227.56
2023-05-20T04:52:56.182Z,96229.03
2023-05-20T04:55:25.913Z,96235.53
2023-05-20T04:57:54.197Z,96225.97
2023-05-20T05:00:23.636Z,96229.41
2023-05-20T05:02:52.004Z,96225.56
2023-05-20T05:05:20.369Z,96211.41
2023-05-20T05:07:49.142Z,96221.03
2023-05-20T05:10:18.979Z,96210.41
2023-05-20T05:12:48.472Z,96211.16
2023-05-20T05:15:16.957Z,96216.84
2023-05-20T05:17:45.271Z,96225.94
2023-05-20T05:20:13.582Z,96215.47
2023-05-20T05:22:41.910Z,96219.06
2023-05-20T05:25:11.364Z,96219.84
2023-05-20T05:27:41.240Z,96226.16
2023-05-20T05:30:10.700Z,96222.91
2023-05-20T05:32:39.144Z,96217.63
2023-05-20T05:35:08.450Z,96220.44
2023-05-20T05:37:37.006Z,96214.50
2023-05-20T05:40:06.071Z,96212.63
2023-05-20T05:42:34.400Z,96217.81
2023-05-20T05:45:04.872Z,96213.97
2023-05-20T05:47:33.229Z,96206.66
2023-05-20T05:50:01.664Z,96207.09
2023-05-20T05:52:29.997Z,96213.03
2023-05-20T05:54:58.344Z,96217.41
2023-05-20T05:57:26.699Z,96214.72
2023-05-20T05:59:55.036Z,96212.75
2023-05-20T06:02:24.904Z,96215.16
2023-05-20T06:04:53.284Z,96208.41
2023-05-20T06:07:21.627Z,96218.16
2023-05-20T06:09:49.987Z,96210.63
2023-05-20T06:12:18.306Z,96208.13
2023-05-20T06:14:46.604Z,96209.97
2023-05-20T06:17:14.960Z,96210.38
2023-05-20T06:19:44.732Z,96209.03
2023-05-20T06:22:13.022Z,96209.75
2023-05-20T06:24:41.293Z,96216.94
2023-05-20T06:27:09.641Z,96210.34
2023-05-20T06:29:38.001Z,96206.28
2023-05-20T06:32:07.080Z,96202.78
2023-05-20T06:34:35.429Z,96208.44
2023-05-20T06:37:05.348Z,96213.06
2023-05-20T06:39:33.673Z,96218.00
2023-05-20T06:42:01.958Z,96228.03
2023-05-20T06:44:30.517Z,96210.19
2023-05-20T06:46:58.862Z,96204.00
2023-05-20T06:49:27.738Z,96206.25
2023-05-20T06:51:56.072Z,96212.84
2023-05-20T06:54:25.703Z,96212.31
2023-05-20T06:56:54.005Z,96203.16
2023-05-20T06:59:22.384Z,96195.69
2023-05-20T07:01:50.657Z,96201.66
2023-05-20T07:04:18.993Z,96204.13
2023-05-20T07:06:47.246Z,96192.00
2023-05-20T07:09:15.522Z,96186.84
2023-05-20T07:11:45.277Z,96183.88
2023-05-20T07:14:13.625Z,96187.78
2023-05-20T07:16:41.925Z,96185.94
2023-05-20T07:19:10.791Z,96186.72
2023-05-20T07:21:39.144Z,96173.94
2023-05-20T07:24:07.854Z,96173.38
2023-05-20T07:26:36.650Z,96179.16
2023-05-20T07:29:06.590Z,96179.13
2023-05-20T07:31:34.952Z,96173.72
2023-05-20T07:34:03.382Z,96175.25
2023-05-20T07:36:31.805Z,96171.97
2023-05-20T07:39:04.240Z,96179.16
2023-05-20T07:41:33.430Z,96168.09
2023-05-20T07:44:03.380Z,96181.34
2023-05-20T07:46:33.199Z,96178.56
2023-05-20T07:49:01.683Z,96175.16
2023-05-20T07:51:29.964Z,96173.53
2023-05-20T07:53:58.337Z,96174.94
2023-05-20T07:56:26.703Z,96176.38
2023-05-20T07:58:59.691Z,96167.13
2023-05-20T08:01:28.473Z,96173.41
2023-05-20T08:03:58.267Z,96168.78
2023-05-20T08:06:29.361Z,96163.31
2023-05-20T08:08:58.135Z,96166.13
2023-05-20T08:11:26.485Z,96162.53
2023-05-20T08:13:54.943Z,96167.44
2023-05-20T08:16:23.458Z,96173.41
2023-05-20T08:18:51.845Z,96167.31
2023-05-20T08:21:21.741Z,96159.34
2023-05-20T08:23:50.531Z,96158.25
2023-05-20T08:26:18.804Z,96149.38
2023-05-20T08:28:47.295Z,96147.63
2023-05-20T08:31:15.825Z,96150.34
2023-05-20T08:33:44.112Z,96122.72
2023-05-20T08:36:12.406Z,96143.09
2023-05-20T08:38:42.119Z,96136.00
2023-05-20T08:41:10.464Z,96138.31
2023-05-20T08:43:38.871Z,96130.25
2023-05-20T08:46:07.542Z,96146.94
2023-05-20T08:48:36.989Z,96149.44
2023-05-20T08:51:05.686Z,96147.75
2023-05-20T08:53:34.024Z,96149.91
2023-05-20T08:56:04.157Z,96147.91
2023-05-20T08:58:32.822Z,96128.53
2023-05-20T09:01:01.302Z,96129.06
2023-05-20T09:03:29.644Z,96135.16
2023-05-20T09:06:05.348Z,96137.44
2023-05-20T09:08:34.351Z,96126.19
2023-05-20T09:11:04.270Z,96122.81
2023-05-20T09:13:34.032Z,96127.63
2023-05-20T09:16:03.510Z,96129.69
2023-05-20T09:18:32.156Z,96123.72
2023-05-20T09:21:06.833Z,96121.72
2023-05-20T09:23:37.968Z,96127.91
2023-05-20T09:26:07.668Z,96121.16
2023-05-20T09:28:38.320Z,96122.88
2023-05-20T09:31:07.191Z,96139.59
2023-05-20T09:33:35.707Z,96136.31
2023-05-20T09:36:05.481Z,96131.78
2023-05-20T09:38:37.920Z,96132.69
2023-05-20T09:41:09.325Z,96135.72
2023-05-20T09:43:37.833Z,96129.56
2023-05-20T09:46:06.606Z,96126.75
2023-05-20T09:48:37.262Z,96132.41
2023-05-20T09:51:06.878Z,96129.00
2023-05-20T09:53:35.540Z,96120.22
2023-05-20T09:56:04.194Z,96126.84
2023-05-20T09:58:35.331Z,96120.75
2023-05-20T10:01:03.733Z,96116.28
2023-05-20T10:03:33.566Z,96117.00
2023-05-20T10:06:13.679Z,96109.44
2023-05-20T10:08:56.977Z,96102.88
2023-05-20T10:11:29.365Z,96100.25
2023-05-20T10:14:13.467Z,96106.03
2023-05-20T10:16:47.737Z,96102.03
2023-05-20T10:19:26.695Z,96093.13
2023-05-20T10:21:59.088Z,96105.34
2023-05-20T10:24:34.852Z,96084.59
2023-05-20T10:27:05.621Z,96084.72
2023-05-20T10:29:45.071Z,96092.63
2023-05-20T10:32:13.503Z,96095.84
2023-05-20T10:34:48.663Z,96095.53
2023-05-20T10:37:25.897Z,96087.28
2023-05-20T10:39:54.397Z,96092.84
2023-05-20T10:42:29.836Z,96084.75
2023-05-20T10:44:59.514Z,96070.50
2023-05-20T10:47:27.827Z,96072.78
2023-05-20T10:49:56.242Z,96067.50
2023-05-20T10:52:25.219Z,96076.66
2023-05-20T10:54:56.990Z,96072.69
2023-05-20T10:57:26.968Z,96075.25
2023-05-20T10:59:55.985Z,96075.50
2023-05-20T11:02:27.191Z,96076.41
2023-05-20T11:04:58.130Z,96064.91
2023-05-20T11:07:28.109Z,96064.97
2023-05-20T11:09:56.442Z,96070.97
2023-05-20T11:12:25.558Z,96061.47
2023-05-20T11:14:54.195Z,96066.94
2023-05-20T11:17:22.777Z,96053.16
2023-05-20T11:19:52.454Z,96062.38
2023-05-20T11:22:20.708Z,96051.94
2023-05-20T11:24:49.017Z,96047.72
2023-05-20T11:27:17.293Z,96038.38
2023-05-20T11:29:45.631Z,96055.50
2023-05-20T11:32:14.154Z,96055.47
2023-05-20T11:34:42.728Z,96063.63
2023-05-20T11:37:12.689Z,96040.63
2023-05-20T11:39:40.962Z,96038.50
2023-05-20T11:42:09.313Z,96034.50
2023-05-20T11:44:38.553Z,96037.03
2023-05-20T11:47:07.702Z,96043.88
2023-05-20T11:49:40.999Z,96034.72
2023-05-20T11:52:12.571Z,96022.25
2023-05-20T11:54:40.997Z,96022.13
2023-05-20T11:57:09.371Z,96019.34
2023-05-20T11:59:37.761Z,96026.84
2023-05-20T12:02:06.520Z,96030.63
2023-05-20T12:04:34.820Z,96020.88
2023-05-20T12:07:04.115Z,96020.53
2023-05-20T12:09:33.779Z,96015.53
2023-05-20T12:12:02.765Z,96020.91
2023-05-20T12:14:31.151Z,96011.28
2023-05-20T12:16:59.882Z,96026.09
2023-05-20T12:19:28.339Z,96010.56
2023-05-20T12:21:56.749Z,96010.38
2023-05-20T12:24:25.008Z,96014.72
2023-05-20T12:26:54.659Z,96006.13
2023-05-20T12:29:22.930Z,96000.47
2023-05-20T12:31:51.261Z,96005.34
2023-05-20T12:34:19.671Z,95997.38
2023-05-20T12:36:48.458Z,96004.00
2023-05-20T12:39:17.836Z,96009.09
2023-05-20T12:41:46.499Z,95998.97
2023-05-20T12:44:16.186Z,96001.09
2023-05-20T12:46:44.503Z,96008.94
2023-05-20T12:49:12.856Z,96005.53
2023-05-20T12:51:41.136Z,96008.41
2023-05-20T12:54:09.403Z,96007.09
2023-05-20T12:56:37.726Z,96003.09
2023-05-20T12:59:05.984Z,96000.66
2023-05-20T13:01:36.040Z,95997.13
2023-05-20T13:04:04.492Z,95993.66
2023-05-20T13:06:32.944Z,95997.94
2023-05-20T13:09:01.244Z,95990.50
2023-05-20T13:11:29.557Z,95992.56
2023-05-20T13:13:58.072Z,95983.38
2023-05-20T13:16:26.824Z,95994.13
2023-05-20T13:18:56.730Z,95981.53
2023-05-20T13:21:25.078Z,95984.38
2023-05-20T13:23:53.384Z,95989.78
2023-05-20T13:26:21.929Z,95983.97
2023-05-20T13:28:50.235Z,95973.56
2023-05-20T13:31:18.672Z,95969.97
2023-05-20T13:33:46.965Z,95970.41
2023-05-20T13:36:16.665Z,95971.56
2023-05-20T13:38:44.972Z,95965.94
2023-05-20T13:41:13.281Z,95956.41
2023-05-20T13:43:42.232Z,95952.53
2023-05-20T13:46:10.738Z,95948.59
2023-05-20T13:48:39.189Z,95967.03
2023-05-20T13:51:07.529Z,95957.34
2023-05-20T13:53:37.195Z,95961.31
2023-05-20T13:56:05.779Z,95959.34
2023-05-20T13:58:34.114Z,95955.91
2023-05-20T14:01:02.428Z,95942.28
2023-05-20T14:03:31.077Z,95953.88
2023-05-20T14:05:59.542Z,95944.06
2023-05-20T14:08:27.883Z,95935.97
2023-05-20T14:10:57.535Z,95948.94
2023-05-20T14:13:26.103Z,95946.50
2023-05-20T14:15:55.670Z,95934.72
2023-05-20T14:18:23.991Z,95944.31
2023-05-20T14:20:52.375Z,95929.59
2023-05-20T14:23:21.426Z,95930.00
2023-05-20T14:25:49.731Z,95931.56
2023-05-20T14:28:19.388Z,95929.34
2023-05-20T14:30:47.663Z,95933.41
2023-05-20T14:33:16.040Z,95923.66
2023-05-20T14:35:44.494Z,95917.78
2023-05-20T14:38:12.837Z,95926.63
2023-05-20T14:40:41.123Z,95909.88
2023-05-20T14:43:09.564Z,95913.97
2023-05-20T14:45:39.290Z,95914.09
2023-05-20T14:48:08.036Z,95906.38
2023-05-20T14:50:36.607Z,95911.97
2023-05-20T14:53:05.613Z,95906.09
2023-05-20T14:55:33.883Z,95913.91
2023-05-20T14:58:02.182Z,95913.81
2023-05-20T15:00:30.597Z,95909.19
2023-05-20T15:03:00.361Z,95907.34
2023-05-20T15:05:28.775Z,95907.69
2023-05-20T15:07:57.332Z,95908.72
2023-05-20T15:10:25.787Z,95902.97
2023-05-20T15:12:54.055Z,95912.00
2023-05-20T15:15:22.489Z,95909.72
2023-05-20T15:17:50.950Z,95909.84
2023-05-20T15:20:20.602Z,95906.72
2023-05-20T15:22:48.883Z,95899.84
2023-05-20T15:25:17.444Z,95899.66
2023-05-20T15:27:45.720Z,95902.63
2023-05-20T15:30:15.145Z,95905.41
2023-05-20T15:32:43.759Z,95904.16
2023-05-20T15:35:12.181Z,95909.72
2023-05-20T15:37:42.200Z,95909.97
2023-05-20T15:40:11.628Z,95909.81
2023-05-20T15:42:39.949Z,95901.56
2023-05-20T15:45:09.174Z,95906.78
2023-05-20T15:47:39.876Z,95907.00
2023-05-20T15:50:11.163Z,95904.25
2023-05-20T15:52:40.929Z,95890.56
2023-05-20T15:55:10.868Z,95891.44
2023-05-20T15:57:39.216Z,95898.06
2023-05-20T16:00:10.498Z,95908.06
2023-05-20T16:02:40.361Z,95899.38
2023-05-20T16:05:09.235Z,95896.66
2023-05-20T16:07:37.574Z,95909.06
2023-05-20T16:10:08.555Z,95901.91
2023-05-20T16:12:36.892Z,95906.94
2023-05-20T16:15:05.828Z,95903.69
2023-05-20T16:17:34.137Z,95904.78
2023-05-20T16:20:02.511Z,95903.63
2023-05-20T16:22:30.808Z,95892.78
2023-05-20T16:24:59.074Z,95885.97
2023-05-20T16:27:30.052Z,95905.97
2023-05-20T16:29:58.374Z,95899.34
2023-05-20T16:32:27.137Z,95891.34
2023-05-20T16:34:55.681Z,95881.78
2023-05-20T16:37:23.917Z,95892.47
2023-05-20T16:39:52.150Z,95892.81
2023-05-20T16:42:20.411Z,95888.75
2023-05-20T16:44:51.528Z,95893.34
2023-05-20T16:47:19.910Z,95900.06
2023-05-20T16:49:48.161Z,95900.22
2023-05-20T16:52:16.545Z,95901.97
2023-05-20T16:54:44.998Z,95896.41
2023-05-20T16:57:15.912Z,95904.31
2023-05-20T16:59:44.185Z,95896.66
2023-05-20T17:02:13.821Z,95898.03
2023-05-20T17:04:42.199Z,95893.81
2023-05-20T17:07:11.394Z,95903.16
2023-05-20T17:09:39.668Z,95908.47
2023-05-20T17:12:08.552Z,95900.47
2023-05-20T17:14:37.034Z,95905.66
2023-05-20T17:17:06.025Z,95907.56
2023-05-20T17:19:35.879Z,95906.31
2023-05-20T17:22:04.157Z,95910.31
2023-05-20T17:24:33.083Z,95908.03
2023-05-20T17:27:01.964Z,95908.09
2023-05-20T17:29:30.296Z,95909.25
2023-05-20T17:31:58.605Z,95916.88
2023-05-20T17:34:26.861Z,95920.09
2023-05-20T17:36:57.177Z,95916.94
2023-05-20T17:39:25.285Z,95922.22
2023-05-20T17:41:53.450Z,95917.69
2023-05-20T17:44:21.695Z,95917.34
2023-05-20T17:46:49.991Z,95919.63
2023-05-20T17:49:18.420Z,95926.72
2023-05-20T17:51:46.738Z,95944.50
2023-05-20T17:54:16.384Z,95931.91
2023-05-20T17:56:47.616Z,95933.28
2023-05-20T17:59:15.951Z,95932.00
2023-05-20T18:01:44.786Z,95941.13
2023-05-20T18:04:13.271Z,95926.94
2023-05-20T18:06:41.739Z,95927.03
2023-05-20T18:09:10.328Z,95942.13
2023-05-20T18:11:40.082Z,95939.03
2023-05-20T18:14:08.357Z,95933.22
2023-05-20T18:16:36.713Z,95935.25
2023-05-20T18:19:05.262Z,95935.94
2023-05-20T18:21:33.582Z,95940.53
2023-05-20T18:24:01.906Z,95943.16
2023-05-20T18:26:30.223Z,95945.59
2023-05-20T18:28:59.913Z,95939.47
2023-05-20T18:31:28.231Z,95937.00
2023-05-20T18:33:56.518Z,95944.19
2023-05-20T18:36:25.018Z,95943.31
2023-05-20T18:38:53.293Z,95938.53
2023-05-20T18:41:23.599Z,95944.28
2023-05-20T18:43:55.340Z,95937.06
2023-05-20T18:46:25.039Z,95932.13
2023-05-20T18:48:53.342Z,95941.25
2023-05-20T18:51:21.637Z,95945.00
2023-05-20T18:53:49.931Z,95934.03
2023-05-20T18:56:18.323Z,95935.72
2023-05-20T18:58:46.847Z,95938.97
2023-05-20T19:01:15.223Z,95935.78
2023-05-20T19:03:45.079Z,95944.22
2023-05-20T19:06:13.935Z,95948.56
2023-05-20T19:08:42.205Z,95946.03
2023-05-20T19:11:10.591Z,95934.28
2023-05-20T19:13:38.876Z,95941.75
2023-05-20T19:16:07.601Z,95943.78
2023-05-20T19:18:35.929Z,95950.56
2023-05-20T19:21:05.958Z,95954.75
2023-05-20T19:23:34.307Z,95948.09
2023-05-20T19:26:02.637Z,95945.88
2023-05-20T19:28:30.935Z,95954.78
2023-05-20T19:30:59.255Z,95961.41
2023-05-20T19:33:27.569Z,95949.56
2023-05-20T19:35:57.716Z,95961.75
2023-05-20T19:38:27.392Z,95965.38
2023-05-20T19:40:55.701Z,95970.59
2023-05-20T19:43:24.281Z,95968.03
2023-05-20T19:45:52.683Z,95955.31
2023-05-20T19:48:22.444Z,95969.34
2023-05-20T19:50:50.854Z,95976.41
2023-05-20T19:53:20.885Z,95978.91
2023-05-20T19:55:50.691Z,95978.00
2023-05-20T19:58:18.982Z,95979.09
2023-05-20T20:00:47.276Z,95982.88
2023-05-20T20:03:15.678Z,95984.97
2023-05-20T20:05:44.106Z,95982.31
2023-05-20T20:08:12.473Z,95986.66
2023-05-20T20:10:40.833Z,95993.28
2023-05-20T20:13:10.541Z,95986.81
2023-05-20T20:15:40.094Z,95984.75
2023-05-20T20:18:08.423Z,95984.69
2023-05-20T20:20:40.079Z,95970.69
2023-05-20T20:23:08.926Z,95982.41
2023-05-20T20:25:38.717Z,95980.00
2023-05-20T20:28:07.215Z,95982.59
2023-05-20T20:30:37.289Z,95991.34
2023-05-20T20:33:07.139Z,95989.91
2023-05-20T20:35:36.186Z,95982.13
2023-05-20T20:38:08.851Z,95986.41
2023-05-20T20:40:41.601Z,95993.44
2023-05-20T20:43:10.904Z,95985.41
2023-05-20T20:45:40.664Z,95998.97
2023-05-20T20:48:09.075Z,95989.50
2023-05-20T20:50:37.522Z,95989.19
2023-05-20T20:53:05.879Z,95984.63
2023-05-20T20:55:34.412Z,95987.94
2023-05-20T20:58:04.794Z,95989.53
2023-05-20T21:00:33.848Z,95987.53
2023-05-20T21:03:03.685Z,95988.28
2023-05-20T21:05:31.932Z,95978.09
2023-05-20T21:08:03.194Z,95986.63
2023-05-20T21:10:31.617Z,95982.44
2023-05-20T21:13:00.302Z,95994.31
2023-05-20T21:15:28.608Z,95988.44
2023-05-20T21:17:57.002Z,95994.59
2023-05-20T21:20:26.821Z,95989.50
2023-05-20T21:22:55.096Z,95989.34
2023-05-20T21:25:23.364Z,95992.78
2023-05-20T21:27:51.793Z,95987.38
2023-05-20T21:30:20.168Z,95982.06
2023-05-20T21:32:48.545Z,95984.84
2023-05-20T21:35:17.044Z,95987.19
2023-05-20T21:37:46.702Z,95982.59
2023-05-20T21:40:15.058Z,95980.97
2023-05-20T21:42:43.351Z,95980.44
2023-05-20T21:45:12.179Z,95980.97
2023-05-20T21:47:40.572Z,95983.34
2023-05-20T21:50:09.723Z,95973.72
2023-05-20T21:52:39.804Z,95979.19
2023-05-20T21:55:10.950Z,95981.41
2023-05-20T21:57:39.234Z,95977.06
2023-05-20T22:00:14.226Z,95980.88
2023-05-20T22:02:42.786Z,95976.66
2023-05-20T22:05:11.869Z,95976.81
2023-05-20T22:07:42.016Z,95983.78
2023-05-20T22:10:12.707Z,95968.72
2023-05-20T22:12:42.405Z,95976.22
2023-05-20T22:15:11.707Z,95976.69
2023-05-20T22:17:40.185Z,95970.06
2023-05-20T22:20:10.666Z,95968.50
2023-05-20T22:22:39.856Z,95962.59
2023-05-20T22:25:08.740Z,95968.19
2023-05-20T22:27:38.809Z,95965.50
2023-05-20T22:30:08.621Z,95961.00
2023-05-20T22:32:37.044Z,95961.19
2023-05-20T22:35:05.915Z,95961.97
2023-05-20T22:37:34.208Z,95960.94
2023-05-20T22:40:02.515Z,95963.44
2023-05-20T22:42:30.792Z,95956.19
2023-05-20T22:45:00.561Z,95959.94
2023-05-20T22:47:28.852Z,95955.16
2023-05-20T22:49:57.551Z,95953.84
2023-05-20T22:52:26.318Z,95941.34
2023-05-20T22:54:54.630Z,95947.06
2023-05-20T22:57:22.930Z,95937.94
2023-05-20T22:59:52.013Z,95947.81
2023-05-20T23:02:21.668Z,95937.78
2023-05-20T23:04:50.148Z,95943.22
2023-05-20T23:07:19.393Z,95941.72
2023-05-20T23:09:48.567Z,95939.78
2023-05-20T23:12:17.182Z,95939.66
2023-05-20T23:14:45.697Z,95938.66
2023-05-20T23:17:14.013Z,95940.22
2023-05-20T23:19:43.764Z,95929.72
2023-05-20T23:22:12.092Z,95933.56
2023-05-20T23:24:40.412Z,95927.13
2023-05-20T23:27:08.745Z,95928.13
2023-05-20T23:29:37.074Z,95929.06
2023-05-20T23:32:06.178Z,95929.03
2023-05-20T23:34:35.167Z,95925.56
2023-05-20T23:37:05.081Z,95922.78
2023-05-20T23:39:33.390Z,95920.47
2023-05-20T23:42:01.705Z,95928.69
2023-05-20T23:44:29.999Z,95929.69
2023-05-20T23:46:58.326Z,95920.59
2023-05-20T23:49:27.240Z,95925.47
2023-05-20T23:51:55.675Z,95919.53
2023-05-20T23:54:25.346Z,95916.19
2023-05-20T23:56:54.048Z,95923.94
2023-05-20T23:59:22.325Z,95913.50
